Mills, Kentucky
Current Conditions -  °F | °C
As of 10:35 AM on Monday 22 Dec 2014 (Local Time) from K1A6 Reporting Station
Overcast Overcast  
Wind Chill: 49°   Ceiling: 4200
Heat Index: 49°   Visibility: 10mi
Dew Point: 39°   Wind: 3mph
Humidity: 67%   Direction: 150°SSE
Pressure: 30.01"   Gusts: NA
Location:  36.8337°N, 83.7599°W
Report Text: K1A6 221535Z AUTO 15003KT 10SM SCT034 OVC042 10/04 A3001 RMK AO2 T00970038
Loading
Personal Weather Stations






























Interactive Weather Map New forecast layout! Learn more

10-Day Weather Forecast

Advertisements
Track Severe Weather on mobile